Time;durP1;ratioP1;P1;durP2;ratioP2;P2;SDS_P1;SDS_P2;PMS_P1;PMS_P2;Temp;Humidity;BMP_temperature;BMP_pressure;BME280_temperature;BME280_humidity;BME280_pressure;Samples;Min_cycle;Max_cycle;Signal;HPM_P1;HPM_P2
2022/11/21 00:00:39;;;;;;;217.23;97.87;;;;;;;-2.04;100.00;98302.64;4137538;83;21724;-82
2022/11/21 00:06:40;;;;;;;203.80;96.03;;;;;;;-2.00;100.00;98302.79;4161383;84;21012;-82
2022/11/21 00:12:41;;;;;;;206.57;92.53;;;;;;;-2.08;100.00;98284.23;4149160;83;21098;-82
2022/11/21 00:18:43;;;;;;;199.90;94.00;;;;;;;-2.13;100.00;98290.30;4203956;83;21060;-82
2022/11/21 00:24:44;;;;;;;217.53;98.90;;;;;;;-2.24;100.00;98287.07;4154959;83;20993;-84
2022/11/21 00:30:45;;;;;;;215.63;103.57;;;;;;;-2.30;100.00;98278.92;4160499;83;21082;-81
2022/11/21 00:36:46;;;;;;;217.53;103.50;;;;;;;-2.44;100.00;98282.79;4151228;83;21613;-82
2022/11/21 00:42:47;;;;;;;225.00;104.83;;;;;;;-2.52;100.00;98277.63;4145513;84;21007;-82
2022/11/21 00:48:49;;;;;;;224.33;104.83;;;;;;;-2.69;100.00;98272.75;4151311;84;21079;-81
2022/11/21 00:54:50;;;;;;;233.83;107.07;;;;;;;-2.64;100.00;98275.27;4147139;84;22092;-81
2022/11/21 01:00:52;;;;;;;234.27;110.17;;;;;;;-2.70;100.00;98278.64;4148608;84;21013;-82
2022/11/21 01:06:53;;;;;;;240.00;111.90;;;;;;;-2.67;100.00;98265.97;4147617;84;21023;-81
2022/11/21 01:12:54;;;;;;;249.80;114.97;;;;;;;-2.70;100.00;98271.14;4152494;84;22351;-82
2022/11/21 01:18:57;;;;;;;228.40;106.90;;;;;;;-2.65;100.00;98262.45;4159985;83;21001;-82
2022/11/21 01:24:58;;;;;;;255.40;121.47;;;;;;;-2.63;100.00;98252.19;4141305;84;21385;-82
2022/11/21 01:31:08;;;;;;;256.77;124.47;;;;;;;-2.67;100.00;98237.84;4158580;83;21025;-82
2022/11/21 01:37:09;;;;;;;264.23;122.03;;;;;;;-2.66;100.00;98246.11;4151039;83;21450;-82
2022/11/21 01:43:15;;;;;;;232.27;111.40;;;;;;;-2.68;100.00;98239.48;4145205;84;21055;-82
2022/11/21 01:49:25;;;;;;;;;;;;;;;-2.73;100.00;98232.37;4172015;83;21025;-81
2022/11/21 01:55:26;;;;;;;256.07;118.63;;;;;;;-2.78;100.00;98247.77;4144132;84;20120;-81
2022/11/21 02:01:28;;;;;;;239.37;117.03;;;;;;;-2.77;100.00;98260.86;4151355;84;21573;-80
2022/11/21 02:07:34;;;;;;;222.23;106.77;;;;;;;-2.78;100.00;98259.28;4136735;84;21045;-80
2022/11/21 02:13:35;;;;;;;225.93;108.30;;;;;;;-2.86;100.00;98259.22;4153449;84;21545;-81
2022/11/21 02:19:59;;;;;;;252.00;116.77;;;;;;;-3.02;100.00;98251.33;4153618;84;21054;-81
2022/11/21 02:26:01;;;;;;;240.93;112.03;;;;;;;-3.08;100.00;98248.51;4144724;84;21051;-80
2022/11/21 02:32:05;;;;;;;236.60;109.17;;;;;;;-3.15;100.00;98249.50;4153470;83;21099;-80
2022/11/21 02:38:21;;;;;;;240.17;111.10;;;;;;;-3.30;100.00;98252.77;4139400;84;20997;-81
2022/11/21 02:45:05;;;;;;;175.05;84.13;;;;;;;-3.34;100.00;98241.64;4155183;84;21572;-80
2022/11/21 02:51:06;;;;;;;231.97;108.07;;;;;;;-3.40;100.00;98239.61;4160679;84;21198;-80
2022/11/21 02:57:08;;;;;;;226.70;106.43;;;;;;;-3.55;100.00;98231.94;4149224;84;22404;-80
2022/11/21 03:03:09;;;;;;;237.30;110.73;;;;;;;-3.80;100.00;98229.02;4159463;83;21029;-80
2022/11/21 03:09:11;;;;;;;243.43;111.13;;;;;;;-3.90;100.00;98227.34;4132959;84;21044;-80
2022/11/21 03:15:14;;;;;;;216.40;96.77;;;;;;;-3.95;100.00;98218.13;4123292;84;22261;-80
2022/11/21 03:21:16;;;;;;;235.90;107.17;;;;;;;-4.01;100.00;98207.83;4118264;84;21008;-80
2022/11/21 03:27:17;;;;;;;227.57;104.97;;;;;;;-4.05;100.00;98200.14;4213591;83;21014;-80
2022/11/21 03:33:18;;;;;;;204.27;93.57;;;;;;;-4.11;100.00;98189.32;4090478;84;21173;-80
2022/11/21 03:39:19;;;;;;;191.83;87.67;;;;;;;-4.19;100.00;98190.82;4194213;83;21001;-80
2022/11/21 03:45:20;;;;;;;173.80;79.10;;;;;;;-4.37;100.00;98198.95;4159245;83;21042;-80
2022/11/21 03:51:22;;;;;;;165.70;74.27;;;;;;;-4.46;100.00;98184.14;4165529;83;21027;-80
2022/11/21 03:57:24;;;;;;;162.93;73.70;;;;;;;-4.61;100.00;98189.80;4175216;83;21079;-80
2022/11/21 04:03:25;;;;;;;158.10;69.37;;;;;;;-4.61;100.00;98195.67;4126924;84;21114;-79
2022/11/21 04:09:26;;;;;;;152.53;70.30;;;;;;;-4.68;100.00;98205.97;4135517;84;21040;-80
2022/11/21 04:15:27;;;;;;;147.67;69.37;;;;;;;-4.77;100.00;98208.51;4129994;84;21103;-80
2022/11/21 04:21:29;;;;;;;164.80;69.87;;;;;;;-4.72;100.00;98188.94;4122863;84;21138;-81
2022/11/21 04:27:30;;;;;;;175.80;77.20;;;;;;;-4.77;100.00;98203.17;4131572;82;21693;-80
2022/11/21 04:33:32;;;;;;;178.90;72.07;;;;;;;-4.79;100.00;98194.66;4154258;83;30045;-80
2022/11/21 04:39:33;;;;;;;161.63;71.73;;;;;;;-4.84;100.00;98192.10;4214743;83;21109;-82
2022/11/21 04:45:34;;;;;;;147.73;66.00;;;;;;;-4.85;100.00;98186.49;4249927;81;20975;-80
2022/11/21 04:51:35;;;;;;;148.27;63.23;;;;;;;-4.83;100.00;98173.66;4245088;82;21074;-80
2022/11/21 04:57:36;;;;;;;132.60;61.50;;;;;;;-4.87;100.00;98176.11;4219881;82;21083;-80
2022/11/21 05:03:38;;;;;;;148.30;63.17;;;;;;;-4.85;100.00;98167.80;4266222;81;21046;-80
2022/11/21 05:09:43;;;;;;;130.00;58.63;;;;;;;-4.87;100.00;98163.33;4247445;82;21019;-80
2022/11/21 05:15:45;;;;;;;134.30;59.17;;;;;;;-5.01;100.00;98149.14;4231592;82;21044;-80
2022/11/21 05:21:46;;;;;;;134.43;56.83;;;;;;;-5.01;100.00;98147.81;4244498;81;21060;-80
2022/11/21 05:27:47;;;;;;;133.90;61.43;;;;;;;-4.97;100.00;98149.63;4182868;83;21109;-80
2022/11/21 05:33:48;;;;;;;138.50;61.20;;;;;;;-4.97;100.00;98142.14;4290511;81;21050;-80
2022/11/21 05:39:50;;;;;;;153.00;66.53;;;;;;;-5.05;100.00;98139.63;4267549;82;20991;-80
2022/11/21 05:45:51;;;;;;;142.63;59.30;;;;;;;-5.16;100.00;98132.88;4255559;82;21029;-80
2022/11/21 05:51:53;;;;;;;142.17;60.87;;;;;;;-5.22;100.00;98123.39;4169931;83;21052;-79
2022/11/21 05:57:59;;;;;;;160.37;72.40;;;;;;;-5.23;100.00;98106.34;4160223;82;21041;-80
2022/11/21 06:04:01;;;;;;;147.47;66.63;;;;;;;-5.23;100.00;98103.11;4230296;81;21634;-79
2022/11/21 06:10:05;;;;;;;162.73;69.63;;;;;;;-5.17;100.00;98101.16;4296040;81;21007;-80
2022/11/21 06:16:14;;;;;;;163.87;70.17;;;;;;;-5.18;100.00;98108.36;4321971;80;21062;-79
2022/11/21 06:22:15;;;;;;;159.00;70.10;;;;;;;-5.21;100.00;98095.61;4273438;81;21086;-79
2022/11/21 06:28:16;;;;;;;159.00;72.43;;;;;;;-5.25;100.00;98097.30;4286382;80;21077;-79
2022/11/21 06:34:17;;;;;;;163.87;71.90;;;;;;;-5.30;100.00;98101.39;4296265;80;21827;-79
2022/11/21 06:40:20;;;;;;;144.93;62.63;;;;;;;-5.31;100.00;98097.68;4315630;81;21001;-80
2022/11/21 06:46:22;;;;;;;159.40;68.77;;;;;;;-5.27;100.00;98109.33;4283783;82;21036;-79
2022/11/21 06:52:23;;;;;;;175.93;76.27;;;;;;;-5.26;100.00;98098.37;4298832;81;21470;-80
2022/11/21 06:58:24;;;;;;;150.73;68.73;;;;;;;-5.14;100.00;98098.70;4234604;82;21989;-80
2022/11/21 07:04:28;;;;;;;153.17;69.00;;;;;;;-5.09;100.00;98094.58;4230363;82;21478;-80
2022/11/21 07:10:30;;;;;;;163.53;74.70;;;;;;;-5.00;100.00;98093.36;4215263;81;20979;-81
2022/11/21 07:16:33;;;;;;;178.67;82.43;;;;;;;-4.92;100.00;98089.44;4315988;81;21081;-80
2022/11/21 07:22:34;;;;;;;182.30;79.47;;;;;;;-4.64;100.00;98088.11;4289455;81;20997;-80
2022/11/21 07:28:35;;;;;;;196.13;90.40;;;;;;;-4.29;100.00;98086.80;4287162;81;21005;-80
2022/11/21 07:34:36;;;;;;;182.40;84.30;;;;;;;-3.83;100.00;98086.02;4285732;81;21626;-80
2022/11/21 07:40:38;;;;;;;173.07;82.90;;;;;;;-3.15;100.00;98096.91;4295314;81;20951;-80
2022/11/21 07:46:39;;;;;;;174.73;82.03;;;;;;;-2.57;100.00;98080.04;4320790;81;20974;-81
2022/11/21 07:52:40;;;;;;;172.20;81.00;;;;;;;-1.94;100.00;98074.34;4295479;81;21069;-81
2022/11/21 07:58:41;;;;;;;156.10;76.93;;;;;;;-1.23;100.00;98059.41;4335724;81;21939;-82
2022/11/21 08:04:42;;;;;;;163.20;80.23;;;;;;;-0.82;100.00;98058.23;4322109;81;20999;-82
2022/11/21 08:10:47;;;;;;;177.80;84.42;;;;;;;-0.29;100.00;98044.16;4245168;81;21018;-83
2022/11/21 08:16:52;;;;;;;177.40;83.17;;;;;;;0.22;100.00;98045.09;4174102;83;21050;-84
2022/11/21 08:22:53;;;;;;;142.30;70.78;;;;;;;0.91;100.00;98043.86;4254079;82;21045;-83
2022/11/21 08:28:55;;;;;;;132.67;64.67;;;;;;;1.54;100.00;98036.45;4323495;81;21078;-84
2022/11/21 08:34:56;;;;;;;140.90;66.72;;;;;;;1.87;100.00;98026.83;4269703;81;21019;-82
2022/11/21 08:47:19;;;;;;;122.35;60.45;;;;;;;1.91;100.00;98034.48;4237455;81;21030;-83
2022/11/21 08:53:21;;;;;;;116.35;59.35;;;;;;;2.34;100.00;98020.49;4236173;81;21047;-83
2022/11/21 08:59:22;;;;;;;125.72;62.55;;;;;;;2.96;100.00;98028.70;4247327;81;22077;-83
2022/11/21 09:05:23;;;;;;;106.25;59.00;;;;;;;3.32;100.00;98026.28;4217698;81;21048;-84
2022/11/21 09:11:24;;;;;;;111.90;61.33;;;;;;;3.41;100.00;98026.91;4240224;82;21070;-84
2022/11/21 09:23:45;;;;;;;113.15;60.00;;;;;;;3.99;100.00;98024.55;4228344;82;21020;-84
2022/11/21 09:29:46;;;;;;;102.85;55.17;;;;;;;3.73;100.00;98023.58;4226568;82;20967;-85
2022/11/21 09:35:48;;;;;;;107.20;57.48;;;;;;;3.46;100.00;98023.91;4226572;83;20964;-85
2022/11/21 09:42:37;;;;;;;104.60;58.35;;;;;;;3.16;100.00;98028.23;4231720;83;20978;-85
2022/11/21 09:48:49;;;;;;;104.15;55.85;;;;;;;3.15;100.00;98019.33;4200424;83;21957;-86
2022/11/21 09:54:56;;;;;;;125.90;60.85;;;;;;;2.95;100.00;98014.97;4198104;83;20972;-85
2022/11/21 10:00:58;;;;;;;111.90;60.78;;;;;;;2.77;100.00;98000.20;4179219;83;20997;-86
2022/11/21 10:07:09;;;;;;;107.87;56.10;;;;;;;2.77;100.00;97998.86;4240507;81;20978;-86
2022/11/21 10:13:38;;;;;;;130.20;64.53;;;;;;;2.85;100.00;98007.95;4247572;82;21994;-85
2022/11/21 10:19:50;;;;;;;141.62;70.50;;;;;;;2.89;100.00;98002.06;4253763;82;21027;-86
2022/11/21 10:26:26;;;;;;;125.60;64.47;;;;;;;2.94;100.00;97999.09;4227323;81;21648;-86
2022/11/21 10:32:52;;;;;;;118.60;62.70;;;;;;;3.04;100.00;97998.00;4242380;82;21036;-86
2022/11/21 10:39:02;;;;;;;134.00;65.80;;;;;;;3.18;100.00;97994.28;4236702;82;21036;-87
2022/11/21 10:45:18;;;;;;;119.45;63.83;;;;;;;3.33;100.00;97987.30;4287658;81;20995;-88
2022/11/21 10:51:29;;;;;;;114.35;61.63;;;;;;;3.47;100.00;97980.86;4284640;81;21929;-87
2022/11/21 10:57:49;;;;;;;113.12;60.23;;;;;;;3.56;100.00;97977.94;4270851;80;21062;-87
2022/11/21 11:04:13;;;;;;;120.55;60.60;;;;;;;3.75;100.00;97974.70;4304462;81;21059;-87
2022/11/21 11:10:23;;;;;;;127.60;65.22;;;;;;;3.82;100.00;97969.43;4247292;82;21113;-87
2022/11/21 11:16:28;;;;;;;119.35;62.23;;;;;;;3.87;100.00;97953.50;4200005;82;47756;-87
2022/11/21 11:22:29;;;;;;;118.97;65.32;;;;;;;3.95;100.00;97951.92;4218809;82;21015;-87
2022/11/21 11:28:38;;;;;;;123.18;64.72;;;;;;;4.04;100.00;97957.13;4290502;80;21082;-87
2022/11/21 11:35:08;;;;;;;119.25;63.17;;;;;;;4.12;100.00;97948.02;4281242;81;21070;-86
2022/11/21 12:16:31;;;;;;;112.55;63.90;;;;;;;4.47;100.00;97922.91;4210079;82;21117;-89
2022/11/21 12:22:52;;;;;;;116.65;61.53;;;;;;;4.46;100.00;97927.55;4227181;82;21701;-89
2022/11/21 12:36:10;;;;;;;100.80;54.90;;;;;;;4.47;100.00;97929.69;4299475;82;21919;-89
2022/11/21 12:42:48;;;;;;;107.85;54.83;;;;;;;4.36;100.00;97928.72;4200757;81;21026;-89
2022/11/21 12:57:06;;;;;;;125.15;63.92;;;;;;;4.29;100.00;97923.94;4164051;82;21118;-88
2022/11/21 13:03:35;;;;;;;110.70;59.60;;;;;;;4.35;100.00;97913.61;4023867;86;21866;-89
2022/11/21 13:10:25;;;;;;;116.57;62.93;;;;;;;4.37;100.00;97913.45;4213025;82;21103;-86
2022/11/21 13:24:13;;;;;;;108.22;59.58;;;;;;;4.38;100.00;97902.05;4234828;82;21070;-86
2022/11/21 13:30:17;;;;;;;106.27;57.88;;;;;;;4.41;100.00;97903.48;4197267;82;21084;-87
2022/11/21 13:36:40;;;;;;;97.72;53.95;;;;;;;4.44;100.00;97904.11;4194224;82;21056;-87
2022/11/21 13:43:22;;;;;;;89.03;49.42;;;;;;;4.50;100.00;97901.87;4214136;82;21047;-89
2022/11/21 13:49:47;;;;;;;76.53;39.92;;;;;;;4.55;100.00;97905.64;4192513;82;21134;-88
2022/11/21 13:56:11;;;;;;;72.17;41.37;;;;;;;4.55;100.00;97905.64;4123845;82;20981;-87
2022/11/21 14:02:44;;;;;;;74.22;37.90;;;;;;;4.53;100.00;97902.50;4242888;82;21068;-87
2022/11/21 14:09:15;;;;;;;46.98;25.55;;;;;;;4.44;100.00;97900.60;4213356;82;21011;-87
2022/11/21 14:23:02;;;;;;;22.25;12.45;;;;;;;4.02;100.00;97893.06;4243534;81;21990;-87
2022/11/21 14:36:18;;;;;;;11.60;6.67;;;;;;;3.67;100.00;97889.64;4232198;82;21081;-87
2022/11/21 14:42:36;;;;;;;9.75;6.15;;;;;;;3.61;100.00;97888.37;4219065;82;21055;-87
2022/11/21 14:48:37;;;;;;;12.40;6.65;;;;;;;3.55;100.00;97900.05;4263035;81;21255;-87
2022/11/21 14:54:56;;;;;;;11.85;6.92;;;;;;;3.44;100.00;97899.61;4263643;81;21077;-86
2022/11/21 15:01:21;;;;;;;18.02;9.03;;;;;;;3.28;100.00;97896.95;4219027;82;22061;-87
2022/11/21 15:07:31;;;;;;;24.77;10.78;;;;;;;3.14;100.00;97906.10;4226285;82;21532;-87
2022/11/21 15:13:34;;;;;;;88.20;53.70;;;;;;;2.96;100.00;97913.80;4169595;82;28551;-87
2022/11/21 15:19:56;;;;;;;88.80;46.65;;;;;;;3.00;100.00;97902.52;4241899;82;21088;-86
2022/11/21 15:33:24;;;;;;;79.47;44.23;;;;;;;2.93;100.00;97916.41;4016766;88;21049;-87
2022/11/21 15:39:48;;;;;;;93.55;45.45;;;;;;;2.79;100.00;97920.92;4026801;86;21122;-87
2022/11/21 15:59:31;;;;;;;100.25;50.10;;;;;;;2.66;100.00;97905.16;4186231;84;21059;-87
2022/11/21 16:05:32;;;;;;;96.28;46.83;;;;;;;2.60;100.00;97910.03;4110110;82;21041;-87
2022/11/21 16:11:43;;;;;;;106.10;52.83;;;;;;;2.54;100.00;97905.23;4203959;81;21137;-86
2022/11/21 16:18:11;;;;;;;114.28;55.73;;;;;;;2.47;100.00;97908.56;4184454;82;22036;-87
2022/11/21 16:30:42;;;;;;;120.20;62.20;;;;;;;2.47;100.00;97896.41;4209271;82;20988;-87
2022/11/21 16:36:45;;;;;;;104.15;54.38;;;;;;;2.39;100.00;97901.41;4258064;81;21112;-86
2022/11/21 16:43:19;;;;;;;115.40;62.60;;;;;;;2.36;100.00;97906.72;4261446;80;20989;-86
2022/11/21 16:49:45;;;;;;;104.75;56.80;;;;;;;2.35;100.00;97908.62;4261704;80;21090;-86
2022/11/21 17:02:55;;;;;;;84.45;46.53;;;;;;;2.29;100.00;97908.66;4190911;82;21079;-87
2022/11/21 17:15:51;;;;;;;104.03;53.87;;;;;;;2.18;100.00;97923.00;4223078;81;21074;-87
2022/11/21 17:21:52;;;;;;;106.97;56.95;;;;;;;2.20;100.00;97928.30;4298261;80;22233;-87
2022/11/21 17:28:07;;;;;;;112.52;60.52;;;;;;;2.15;100.00;97929.09;4259277;80;21058;-86
2022/11/21 17:41:11;;;;;;;115.93;66.03;;;;;;;2.18;100.00;97931.11;4206549;81;21007;-86
2022/11/21 19:03:52;;;;;;;136.52;70.35;;;;;;;1.78;100.00;97943.33;4272463;81;21044;-86
2022/11/21 19:23:42;;;;;;;123.05;65.75;;;;;;;1.99;100.00;97956.64;4179087;82;21096;-85
2022/11/21 19:30:02;;;;;;;120.08;63.02;;;;;;;1.99;100.00;97971.48;4286744;81;21085;-86
2022/11/21 19:50:23;;;;;;;92.88;50.98;;;;;;;2.04;100.00;97975.27;4147181;84;21073;-87
2022/11/21 19:56:25;;;;;;;116.28;65.60;;;;;;;2.10;100.00;97984.72;4170380;83;21741;-87
2022/11/21 20:02:41;;;;;;;123.18;65.72;;;;;;;2.10;100.00;97976.61;4207269;82;21068;-87
2022/11/21 20:08:43;;;;;;;112.63;64.53;;;;;;;2.12;100.00;97983.23;4265198;81;21039;-87
2022/11/21 20:14:45;;;;;;;126.50;69.07;;;;;;;2.12;100.00;97991.33;4283119;80;20987;-87
2022/11/21 20:21:08;;;;;;;119.10;67.25;;;;;;;2.11;100.00;97997.88;4271592;80;21059;-87
2022/11/21 20:27:10;;;;;;;131.70;71.87;;;;;;;2.07;100.00;98002.95;4296408;80;21108;-87
2022/11/21 20:54:07;;;;;;;141.50;76.95;;;;;;;2.15;100.00;98006.84;4268279;82;21115;-87
2022/11/21 21:13:42;;;;;;;124.75;70.10;;;;;;;2.16;100.00;98005.70;4170080;84;20994;-88
2022/11/21 21:20:40;;;;;;;114.92;67.27;;;;;;;2.17;100.00;98002.45;4211274;83;20988;-87
2022/11/21 21:54:17;;;;;;;153.27;80.72;;;;;;;2.07;100.00;98006.41;4271394;81;20975;-88
2022/11/21 22:07:07;;;;;;;163.00;85.50;;;;;;;2.01;100.00;98000.25;4217515;83;21022;-87
2022/11/21 22:19:39;;;;;;;153.87;83.15;;;;;;;1.92;100.00;98001.75;4247119;82;21085;-88
2022/11/21 22:25:40;;;;;;;130.32;73.02;;;;;;;1.80;100.00;98015.29;4217206;81;22090;-87
2022/11/21 22:31:41;;;;;;;147.57;81.17;;;;;;;1.59;100.00;98018.69;4249110;81;21002;-87
2022/11/21 22:37:53;;;;;;;157.97;84.47;;;;;;;1.43;100.00;98017.80;4243566;82;21011;-86
2022/11/21 22:44:22;;;;;;;147.13;81.08;;;;;;;1.40;100.00;98016.58;4282817;81;21062;-87
2022/11/21 22:50:44;;;;;;;163.25;85.90;;;;;;;1.33;100.00;98012.88;4260240;81;21079;-87
2022/11/21 23:03:54;;;;;;;152.75;77.58;;;;;;;0.96;100.00;98005.89;4156992;80;21040;-86
2022/11/21 23:10:06;;;;;;;146.62;76.90;;;;;;;0.64;100.00;97998.68;4274308;80;21513;-86
2022/11/21 23:16:25;;;;;;;146.65;80.42;;;;;;;0.49;100.00;97990.67;4269185;81;21552;-86
2022/11/21 23:22:33;;;;;;;151.60;79.17;;;;;;;0.43;100.00;97979.09;4301061;81;21044;-86
2022/11/21 23:42:06;;;;;;;124.87;63.95;;;;;;;0.07;100.00;97968.22;4231916;82;20132;-85
2022/11/21 23:48:25;;;;;;;111.25;59.27;;;;;;;-0.04;100.00;97962.47;4244118;81;21449;-85
2022/11/21 23:54:34;;;;;;;97.37;52.25;;;;;;;-0.15;100.00;97946.51;4286234;81;21008;-85
